Time;durP1;ratioP1;P1;durP2;ratioP2;P2;SDS_P1;SDS_P2;PMS_P1;PMS_P2;Temp;Humidity;BMP_temperature;BMP_pressure;BME280_temperature;BME280_humidity;BME280_pressure;Samples;Min_cycle;Max_cycle;Signal;HPM_P1;HPM_P2
2022/04/02 00:00:59;;;;;;;;;;;3.60;93.90;;;;;;5045827;28;20167;-76
2022/04/02 00:03:27;;;;;;;;;;;3.50;93.90;;;;;;5050604;28;19925;-76
2022/04/02 00:05:53;;;;;;;;;;;3.50;93.90;;;;;;5048681;28;19931;-76
2022/04/02 00:08:20;;;;;;;;;;;3.50;93.90;;;;;;5044375;28;19933;-76
2022/04/02 00:10:46;;;;;;;;;;;3.50;93.90;;;;;;5048725;28;19924;-76
2022/04/02 00:13:13;;;;;;;;;;;3.50;93.90;;;;;;5049446;28;19933;-75
2022/04/02 00:15:39;;;;;;;;;;;3.50;93.90;;;;;;5046612;28;19929;-75
2022/04/02 00:18:06;;;;;;;;;;;3.50;93.90;;;;;;5047979;28;19936;-76
2022/04/02 00:20:34;;;;;;;;;;;3.50;93.90;;;;;;5047468;28;19929;-75
2022/04/02 00:25:45;;;;;;;;;;;3.50;93.90;;;;;;5044863;28;19931;-76
2022/04/02 00:28:11;;;;;;;;;;;3.50;93.90;;;;;;5048216;28;19936;-75
2022/04/02 00:30:39;;;;;;;;;;;3.50;93.90;;;;;;5045959;28;19932;-75
2022/04/02 00:33:06;;;;;;;;;;;3.50;93.90;;;;;;5048012;28;19933;-76
2022/04/02 00:35:34;;;;;;;;;;;3.40;93.90;;;;;;5051529;28;19928;-75
2022/04/02 00:38:00;;;;;;;;;;;3.40;93.90;;;;;;5049303;28;19929;-76
2022/04/02 00:40:28;;;;;;;;;;;3.40;93.90;;;;;;5048345;28;19936;-75
2022/04/02 00:42:55;;;;;;;;;;;3.40;93.90;;;;;;5050741;28;19933;-76
2022/04/02 00:45:21;;;;;;;;;;;3.40;93.90;;;;;;5046993;28;19928;-76
2022/04/02 00:47:48;;;;;;;;;;;3.40;93.90;;;;;;5052876;28;19935;-76
2022/04/02 00:50:14;;;;;;;;;;;3.40;93.90;;;;;;5051213;28;19929;-76
2022/04/02 00:52:43;;;;;;;;;;;3.40;93.90;;;;;;5049028;28;19932;-76
2022/04/02 00:55:10;;;;;;;;;;;3.40;93.80;;;;;;5050467;28;20400;-75
2022/04/02 00:57:37;;;;;;;;;;;3.40;93.80;;;;;;5053321;28;19936;-76
2022/04/02 01:00:04;;;;;;;;;;;3.40;93.90;;;;;;5048783;28;19925;-75
2022/04/02 01:02:30;;;;;;;;;;;3.40;93.80;;;;;;5049482;28;19935;-76
2022/04/02 01:04:57;;;;;;;;;;;3.40;93.90;;;;;;5054131;28;20076;-76
2022/04/02 01:07:24;;;;;;;;;;;3.30;93.90;;;;;;5051646;28;19936;-76
2022/04/02 01:09:51;;;;;;;;;;;3.30;93.90;;;;;;5049536;28;19941;-75
2022/04/02 01:12:18;;;;;;;;;;;3.30;93.90;;;;;;5056783;28;19928;-76
2022/04/02 01:14:45;;;;;;;;;;;3.30;93.90;;;;;;5051284;28;19936;-75
2022/04/02 01:17:11;;;;;;;;;;;3.30;93.90;;;;;;5050492;28;19936;-76
2022/04/02 01:19:41;;;;;;;;;;;3.40;93.90;;;;;;5052475;28;19928;-75
2022/04/02 01:22:09;;;;;;;;;;;3.30;93.90;;;;;;5050892;28;19933;-76
2022/04/02 01:24:36;;;;;;;;;;;3.30;93.90;;;;;;5052517;28;19933;-77
2022/04/02 01:27:03;;;;;;;;;;;3.30;93.90;;;;;;5051851;28;19936;-76
2022/04/02 01:29:31;;;;;;;;;;;3.30;94.20;;;;;;5052259;28;20316;-76
2022/04/02 01:31:58;;;;;;;;;;;3.30;93.90;;;;;;5056341;28;20617;-77
2022/04/02 01:34:24;;;;;;;;;;;3.30;93.90;;;;;;5051388;28;19929;-76
2022/04/02 01:36:51;;;;;;;;;;;3.30;93.90;;;;;;5054525;28;19956;-76
2022/04/02 01:39:19;;;;;;;;;;;3.30;93.80;;;;;;5047241;28;19929;-76
2022/04/02 01:41:45;;;;;;;;;;;3.30;93.90;;;;;;5050646;28;19928;-76
2022/04/02 01:44:12;;;;;;;;;;;3.30;93.90;;;;;;5048912;28;19933;-76
2022/04/02 01:46:38;;;;;;;;;;;3.30;93.90;;;;;;5053800;28;19937;-76
2022/04/02 01:49:05;;;;;;;;;;;3.30;93.90;;;;;;5048975;28;19928;-77
2022/04/02 01:51:32;;;;;;;;;;;3.20;93.90;;;;;;5050187;28;19932;-76
2022/04/02 01:53:59;;;;;;;;;;;3.20;93.90;;;;;;5050932;28;19933;-76
2022/04/02 01:56:27;;;;;;;;;;;3.30;93.90;;;;;;5053060;28;19928;-76
2022/04/02 01:58:53;;;;;;;;;;;3.20;93.90;;;;;;5051947;28;19928;-76
2022/04/02 02:01:20;;;;;;;;;;;3.20;93.90;;;;;;5050296;28;20019;-76
2022/04/02 02:03:47;;;;;;;;;;;3.20;93.90;;;;;;5048906;28;19932;-76
2022/04/02 02:06:13;;;;;;;;;;;3.20;93.90;;;;;;5053577;28;19935;-76
2022/04/02 02:08:40;;;;;;;;;;;3.20;93.90;;;;;;5055387;28;19929;-75
2022/04/02 02:11:06;;;;;;;;;;;3.20;93.90;;;;;;5049259;28;19928;-76
2022/04/02 02:13:34;;;;;;;;;;;3.20;93.90;;;;;;5049778;28;19936;-76
2022/04/02 02:16:01;;;;;;;;;;;3.20;93.90;;;;;;5051087;28;20287;-76
2022/04/02 02:18:27;;;;;;;;;;;3.20;93.90;;;;;;5052052;28;19932;-75
2022/04/02 02:20:54;;;;;;;;;;;3.20;93.90;;;;;;5048465;28;19950;-76
2022/04/02 02:23:20;;;;;;;;;;;3.20;93.90;;;;;;5051783;28;19929;-76
2022/04/02 02:25:47;;;;;;;;;;;3.20;94.00;;;;;;5052471;28;20406;-75
2022/04/02 02:28:15;;;;;;;;;;;3.20;94.00;;;;;;5050305;28;20023;-75
2022/04/02 02:30:43;;;;;;;;;;;3.20;93.90;;;;;;5049349;28;20351;-75
2022/04/02 02:35:54;;;;;;;;;;;3.10;93.90;;;;;;5050027;28;19931;-76
2022/04/02 02:38:21;;;;;;;;;;;3.10;93.90;;;;;;5047667;28;19955;-77
2022/04/02 02:40:49;;;;;;;;;;;3.10;93.90;;;;;;5045168;28;19933;-76
2022/04/02 02:43:16;;;;;;;;;;;3.10;93.90;;;;;;5048024;28;19935;-76
2022/04/02 02:45:44;;;;;;;;;;;3.10;94.00;;;;;;5047704;28;19951;-75
2022/04/02 02:48:11;;;;;;;;;;;3.10;94.00;;;;;;5048713;28;19935;-76
2022/04/02 02:50:38;;;;;;;;;;;3.10;94.00;;;;;;5048404;28;19928;-76
2022/04/02 02:53:04;;;;;;;;;;;3.10;94.00;;;;;;5050433;28;20451;-76
2022/04/02 02:55:31;;;;;;;;;;;3.10;94.00;;;;;;5047982;28;19932;-76
2022/04/02 02:57:58;;;;;;;;;;;3.10;94.00;;;;;;5051153;28;19928;-76
2022/04/02 03:00:24;;;;;;;;;;;3.10;94.00;;;;;;5046864;28;20393;-75
2022/04/02 03:02:52;;;;;;;;;;;3.10;93.90;;;;;;5047775;28;20423;-76
2022/04/02 03:05:19;;;;;;;;;;;3.10;94.00;;;;;;5047557;28;20397;-76
2022/04/02 03:07:49;;;;;;;;;;;3.10;94.00;;;;;;5047060;28;20500;-76
2022/04/02 03:10:17;;;;;;;;;;;3.10;94.00;;;;;;5048548;28;20385;-76
2022/04/02 03:12:43;;;;;;;;;;;3.10;94.00;;;;;;5052284;28;19937;-75
2022/04/02 03:15:10;;;;;;;;;;;3.10;94.00;;;;;;5048326;28;19963;-76
2022/04/02 03:17:37;;;;;;;;;;;3.10;94.00;;;;;;5050012;28;20356;-76
2022/04/02 03:20:05;;;;;;;;;;;3.10;94.10;;;;;;5049498;28;19932;-76
2022/04/02 03:22:35;;;;;;;;;;;3.10;94.10;;;;;;5049486;28;19928;-76
2022/04/02 03:25:01;;;;;;;;;;;3.00;94.00;;;;;;5050624;28;19932;-76
2022/04/02 03:27:28;;;;;;;;;;;3.00;94.00;;;;;;5049264;28;20298;-77
2022/04/02 03:29:55;;;;;;;;;;;3.00;94.00;;;;;;5049801;28;20377;-77
2022/04/02 03:32:21;;;;;;;;;;;3.00;94.00;;;;;;5047423;28;20403;-76
2022/04/02 03:34:48;;;;;;;;;;;3.00;94.00;;;;;;5046749;28;19929;-76
2022/04/02 03:37:16;;;;;;;;;;;3.00;94.00;;;;;;5050059;28;19928;-76
2022/04/02 03:39:42;;;;;;;;;;;3.00;94.00;;;;;;5047780;28;19932;-76
2022/04/02 03:42:10;;;;;;;;;;;3.00;94.00;;;;;;5046846;28;19925;-76
2022/04/02 03:44:36;;;;;;;;;;;3.00;94.00;;;;;;5047018;28;19939;-76
2022/04/02 03:47:09;;;;;;;;;;;3.00;94.10;;;;;;5048461;28;19940;-75
2022/04/02 03:49:36;;;;;;;;;;;3.00;94.10;;;;;;5046010;28;20377;-76
2022/04/02 03:52:02;;;;;;;;;;;3.00;94.10;;;;;;5046171;28;19928;-76
2022/04/02 03:54:30;;;;;;;;;;;3.00;94.00;;;;;;5047624;28;19951;-76
2022/04/02 03:56:57;;;;;;;;;;;3.00;94.10;;;;;;5050424;28;20027;-76
2022/04/02 03:59:24;;;;;;;;;;;3.00;94.00;;;;;;5046299;28;20308;-76
2022/04/02 04:01:50;;;;;;;;;;;3.00;94.10;;;;;;5046299;28;20055;-76
2022/04/02 04:04:17;;;;;;;;;;;3.00;94.10;;;;;;5047101;28;20294;-77
2022/04/02 04:06:43;;;;;;;;;;;3.00;94.10;;;;;;5047188;28;19933;-76
2022/04/02 04:09:10;;;;;;;;;;;3.00;94.10;;;;;;5049556;28;19932;-76
2022/04/02 04:11:38;;;;;;;;;;;3.00;94.10;;;;;;5047136;28;20277;-76
2022/04/02 04:14:04;;;;;;;;;;;3.00;94.10;;;;;;5047410;28;19983;-76
2022/04/02 04:16:31;;;;;;;;;;;3.00;94.10;;;;;;5048054;28;20385;-77
2022/04/02 04:18:57;;;;;;;;;;;3.00;94.10;;;;;;5047120;28;19933;-75
2022/04/02 04:21:24;;;;;;;;;;;3.00;94.00;;;;;;5047102;28;20007;-76
2022/04/02 04:23:51;;;;;;;;;;;3.00;94.00;;;;;;5046027;28;20198;-75
2022/04/02 04:26:18;;;;;;;;;;;2.90;94.00;;;;;;5048526;28;20022;-75
2022/04/02 04:28:46;;;;;;;;;;;3.00;94.00;;;;;;5048934;28;20523;-75
2022/04/02 04:31:17;;;;;;;;;;;2.90;94.00;;;;;;5048224;28;19936;-75
2022/04/02 04:33:43;;;;;;;;;;;2.90;94.00;;;;;;5052579;28;19925;-75
2022/04/02 04:36:11;;;;;;;;;;;2.90;94.00;;;;;;5043304;28;20460;-77
2022/04/02 04:38:37;;;;;;;;;;;2.90;94.00;;;;;;5046542;28;20295;-76
2022/04/02 04:41:04;;;;;;;;;;;2.90;94.00;;;;;;5050562;28;19940;-75
2022/04/02 04:43:31;;;;;;;;;;;2.90;94.00;;;;;;5045607;28;19935;-75
2022/04/02 04:45:59;;;;;;;;;;;2.90;94.10;;;;;;5046733;28;20428;-74
2022/04/02 04:48:25;;;;;;;;;;;2.90;94.10;;;;;;5046467;28;20321;-76
2022/04/02 04:50:52;;;;;;;;;;;2.90;94.00;;;;;;5050454;28;20342;-76
2022/04/02 04:53:18;;;;;;;;;;;2.90;94.10;;;;;;5045613;28;19929;-76
2022/04/02 04:55:45;;;;;;;;;;;2.90;94.10;;;;;;5049962;28;20612;-75
2022/04/02 04:58:12;;;;;;;;;;;2.90;94.10;;;;;;5046323;28;19964;-75
2022/04/02 05:00:38;;;;;;;;;;;2.90;94.10;;;;;;5049119;28;19932;-76
2022/04/02 05:03:09;;;;;;;;;;;2.90;94.10;;;;;;5047102;28;21410;-75
2022/04/02 05:05:35;;;;;;;;;;;2.90;94.10;;;;;;5049468;28;19947;-76
2022/04/02 05:08:02;;;;;;;;;;;2.90;94.10;;;;;;5048250;28;19928;-76
2022/04/02 05:10:29;;;;;;;;;;;4.00;94.40;;;;;;5045451;28;19936;-75
2022/04/02 05:12:55;;;;;;;;;;;2.80;94.10;;;;;;5047196;28;19944;-75
2022/04/02 05:15:22;;;;;;;;;;;2.80;94.00;;;;;;5047774;28;20016;-75
2022/04/02 05:17:49;;;;;;;;;;;2.80;94.00;;;;;;5042847;28;19935;-75
2022/04/02 05:20:17;;;;;;;;;;;2.90;94.10;;;;;;5049202;28;19925;-75
2022/04/02 05:22:44;;;;;;;;;;;2.80;94.00;;;;;;5048326;28;20063;-75
2022/04/02 05:25:11;;;;;;;;;;;2.80;94.00;;;;;;5045180;28;19939;-75
2022/04/02 05:27:38;;;;;;;;;;;2.80;94.00;;;;;;5050264;28;19975;-75
2022/04/02 05:30:05;;;;;;;;;;;2.80;94.00;;;;;;5047010;28;19939;-75
2022/04/02 05:32:32;;;;;;;;;;;2.80;94.00;;;;;;5050043;28;19929;-75
2022/04/02 05:34:59;;;;;;;;;;;2.80;94.00;;;;;;5048578;28;19939;-75
2022/04/02 05:37:26;;;;;;;;;;;2.80;94.00;;;;;;5047939;28;20034;-75
2022/04/02 05:39:53;;;;;;;;;;;2.80;94.10;;;;;;5048468;28;19933;-75
2022/04/02 05:42:21;;;;;;;;;;;2.80;94.10;;;;;;5049224;28;19931;-75
2022/04/02 05:44:47;;;;;;;;;;;2.80;94.10;;;;;;5046706;28;19982;-75
2022/04/02 05:47:14;;;;;;;;;;;2.80;94.10;;;;;;5048173;28;19929;-75
2022/04/02 05:49:41;;;;;;;;;;;2.80;94.10;;;;;;5049763;28;19940;-75
2022/04/02 05:52:07;;;;;;;;;;;2.80;94.10;;;;;;5048997;28;19928;-75
2022/04/02 05:54:36;;;;;;;;;;;2.80;94.10;;;;;;5050477;28;19929;-75
2022/04/02 05:57:04;;;;;;;;;;;2.80;94.10;;;;;;5052912;28;20567;-75
2022/04/02 05:59:31;;;;;;;;;;;2.80;94.10;;;;;;5048549;28;19937;-75
2022/04/02 06:01:58;;;;;;;;;;;2.80;94.10;;;;;;5049735;28;19933;-75
2022/04/02 06:04:25;;;;;;;;;;;2.80;94.10;;;;;;5046984;28;19936;-75
2022/04/02 06:06:52;;;;;;;;;;;2.70;94.00;;;;;;5048544;28;19929;-75
2022/04/02 06:09:18;;;;;;;;;;;2.70;94.00;;;;;;5051590;28;19932;-75
2022/04/02 06:11:46;;;;;;;;;;;2.70;94.00;;;;;;5050970;28;19935;-75
2022/04/02 06:14:13;;;;;;;;;;;2.70;94.00;;;;;;5050874;28;19925;-76
2022/04/02 06:16:39;;;;;;;;;;;2.70;94.00;;;;;;5048022;28;19972;-76
2022/04/02 06:19:06;;;;;;;;;;;2.70;94.10;;;;;;5049497;28;19932;-75
2022/04/02 06:21:33;;;;;;;;;;;2.70;94.10;;;;;;5051126;28;19952;-75
2022/04/02 06:24:04;;;;;;;;;;;2.70;94.10;;;;;;5060161;28;19928;-75
2022/04/02 06:26:30;;;;;;;;;;;2.70;94.10;;;;;;5045946;28;19978;-76
2022/04/02 06:28:59;;;;;;;;;;;2.70;94.10;;;;;;5056630;28;19935;-75
2022/04/02 06:31:25;;;;;;;;;;;2.70;94.10;;;;;;5050755;28;20019;-77
2022/04/02 06:33:52;;;;;;;;;;;2.70;94.10;;;;;;5049734;28;19936;-75
2022/04/02 06:36:19;;;;;;;;;;;2.70;94.10;;;;;;5051527;28;19925;-75
2022/04/02 06:38:46;;;;;;;;;;;2.70;94.10;;;;;;5050968;28;20434;-76
2022/04/02 06:41:12;;;;;;;;;;;2.70;94.10;;;;;;5050424;28;19933;-76
2022/04/02 06:43:39;;;;;;;;;;;2.70;94.10;;;;;;5053517;28;19925;-77
2022/04/02 06:46:07;;;;;;;;;;;2.70;94.10;;;;;;5048448;28;20097;-76
2022/04/02 06:48:34;;;;;;;;;;;2.70;94.10;;;;;;5047103;28;19928;-76
2022/04/02 06:51:01;;;;;;;;;;;2.70;94.20;;;;;;5047898;28;19943;-76
2022/04/02 06:53:28;;;;;;;;;;;2.70;94.20;;;;;;5047474;28;19935;-76
2022/04/02 06:55:54;;;;;;;;;;;2.70;94.10;;;;;;5045987;28;20648;-76
2022/04/02 06:58:24;;;;;;;;;;;2.70;94.10;;;;;;5048909;28;19933;-77
2022/04/02 07:00:50;;;;;;;;;;;2.70;94.10;;;;;;5047603;28;20268;-76
2022/04/02 07:03:18;;;;;;;;;;;2.70;94.10;;;;;;5046376;28;19932;-77
2022/04/02 07:05:45;;;;;;;;;;;2.70;94.10;;;;;;5044752;28;19933;-78
2022/04/02 07:08:11;;;;;;;;;;;2.70;94.10;;;;;;5043614;28;19933;-79
2022/04/02 07:10:38;;;;;;;;;;;2.70;94.10;;;;;;5043639;28;19933;-78
2022/04/02 07:13:05;;;;;;;;;;;2.70;94.10;;;;;;5045341;28;19929;-78
2022/04/02 07:15:31;;;;;;;;;;;2.70;94.10;;;;;;5044357;28;19937;-78
2022/04/02 07:17:59;;;;;;;;;;;2.70;94.10;;;;;;5050829;28;19935;-77
2022/04/02 07:20:27;;;;;;;;;;;2.70;94.10;;;;;;5043960;28;19929;-80
2022/04/02 07:22:54;;;;;;;;;;;2.70;94.00;;;;;;5044342;28;19928;-79
2022/04/02 07:25:21;;;;;;;;;;;2.70;94.10;;;;;;5044526;28;19984;-78
2022/04/02 07:27:48;;;;;;;;;;;2.70;94.00;;;;;;5045499;28;19933;-77
2022/04/02 07:30:15;;;;;;;;;;;2.70;93.80;;;;;;5043064;28;19928;-76
2022/04/02 07:32:41;;;;;;;;;;;2.60;93.90;;;;;;5046583;28;19940;-77
2022/04/02 07:35:10;;;;;;;;;;;2.70;94.10;;;;;;5044448;28;19932;-77
2022/04/02 07:37:45;;;;;;;;;;;2.60;94.20;;;;;;5045981;28;20341;-77
2022/04/02 07:40:17;;;;;;;;;;;2.60;94.20;;;;;;5043122;28;19948;-77
2022/04/02 07:42:46;;;;;;;;;;;2.60;94.20;;;;;;5045845;28;19932;-77
2022/04/02 07:45:13;;;;;;;;;;;2.70;94.20;;;;;;5042196;28;19960;-78
2022/04/02 07:47:42;;;;;;;;;;;2.70;94.10;;;;;;5044848;28;19925;-77
2022/04/02 07:50:11;;;;;;;;;;;2.70;94.10;;;;;;5043716;28;20629;-77
2022/04/02 07:52:43;;;;;;;;;;;2.70;94.00;;;;;;5040138;28;19933;-75
2022/04/02 07:55:10;;;;;;;;;;;2.70;94.00;;;;;;5043987;28;20055;-76
2022/04/02 07:57:39;;;;;;;;;;;2.80;93.90;;;;;;5044493;28;19925;-76
2022/04/02 08:00:07;;;;;;;;;;;2.80;93.80;;;;;;5047663;28;20026;-77
2022/04/02 08:02:39;;;;;;;;;;;2.80;93.70;;;;;;5047852;28;19928;-76
2022/04/02 08:05:07;;;;;;;;;;;2.80;93.70;;;;;;5048431;28;20015;-76
2022/04/02 08:07:34;;;;;;;;;;;2.80;93.60;;;;;;5050619;28;19929;-76
2022/04/02 08:10:05;;;;;;;;;;;2.80;93.50;;;;;;5046354;28;19936;-76
2022/04/02 08:12:34;;;;;;;;;;;2.80;93.40;;;;;;5047742;28;20039;-76
2022/04/02 08:15:02;;;;;;;;;;;2.80;93.30;;;;;;5046729;28;19936;-77
2022/04/02 08:17:29;;;;;;;;;;;2.80;93.30;;;;;;5049578;28;20399;-76
2022/04/02 08:19:56;;;;;;;;;;;2.80;93.20;;;;;;5048764;28;19929;-78
2022/04/02 08:22:23;;;;;;;;;;;2.90;93.20;;;;;;5047655;28;20396;-77
2022/04/02 08:24:49;;;;;;;;;;;2.80;93.20;;;;;;5047356;28;19928;-76
2022/04/02 08:27:22;;;;;;;;;;;2.80;93.10;;;;;;5048363;28;19936;-76
2022/04/02 08:29:53;;;;;;;;;;;2.80;93.10;;;;;;5041680;28;19932;-76
2022/04/02 08:32:26;;;;;;;;;;;2.80;93.10;;;;;;5042031;28;20311;-75
2022/04/02 08:34:58;;;;;;;;;;;2.80;93.10;;;;;;5039249;28;19983;-67
2022/04/02 08:37:27;;;;;;;;;;;2.90;93.20;;;;;;5042648;28;19928;-68
2022/04/02 08:39:57;;;;;;;;;;;2.90;93.30;;;;;;5038674;28;19937;-69
2022/04/02 08:42:36;;;;;;;;;;;2.80;93.70;;;;;;5041459;28;20248;-68
2022/04/02 08:45:05;;;;;;;;;;;2.80;94.20;;;;;;5039780;28;19935;-68
2022/04/02 08:47:59;;;;;;;;;;;2.80;94.80;;;;;;5040419;28;19959;-69
2022/04/02 08:50:28;;;;;;;;;;;2.80;95.30;;;;;;5035856;28;19932;-70
2022/04/02 08:52:56;;;;;;;;;;;2.80;95.70;;;;;;5038976;28;20439;-69
2022/04/02 08:55:24;;;;;;;;;;;2.80;96.00;;;;;;5042328;28;19928;-69
2022/04/02 08:58:09;;;;;;;;;;;2.90;96.20;;;;;;5041138;28;19932;-69
2022/04/02 09:00:39;;;;;;;;;;;2.90;96.30;;;;;;5042007;28;19929;-69
2022/04/02 09:03:32;;;;;;;;;;;2.90;96.40;;;;;;5046828;28;19928;-69
2022/04/02 09:06:12;;;;;;;;;;;2.90;96.50;;;;;;4997063;28;20511;-69
2022/04/02 09:08:45;;;;;;;;;;;3.00;96.60;;;;;;5044213;28;19932;-68
2022/04/02 09:11:21;;;;;;;;;;;3.00;96.60;;;;;;5046402;28;19933;-69
2022/04/02 09:13:56;;;;;;;;;;;3.00;96.60;;;;;;5049825;28;20465;-69
2022/04/02 09:16:26;;;;;;;;;;;3.00;96.60;;;;;;5048347;28;20349;-69
2022/04/02 09:19:06;;;;;;;;;;;3.00;96.60;;;;;;5042594;28;20026;-67
2022/04/02 09:21:41;;;;;;;;;;;3.00;96.60;;;;;;5041339;28;19971;-68
2022/04/02 09:24:12;;;;;;;;;;;3.00;96.60;;;;;;5045476;28;19953;-69
2022/04/02 09:26:57;;;;;;;;;;;3.10;96.60;;;;;;5045884;28;20404;-67
2022/04/02 09:29:28;;;;;;;;;;;3.10;96.60;;;;;;5039050;28;20372;-68
2022/04/02 09:32:14;;;;;;;;;;;3.10;96.60;;;;;;5045145;28;19990;-70
2022/04/02 09:34:51;;;;;;;;;;;3.10;96.60;;;;;;5043222;28;19939;-68
2022/04/02 09:37:27;;;;;;;;;;;3.10;96.60;;;;;;5041682;28;19928;-69
2022/04/02 09:40:02;;;;;;;;;;;3.20;96.50;;;;;;5044270;28;19932;-68
2022/04/02 09:42:37;;;;;;;;;;;3.10;96.50;;;;;;5048289;28;19933;-69
2022/04/02 09:45:08;;;;;;;;;;;3.10;96.50;;;;;;5045080;28;20019;-70
2022/04/02 09:47:46;;;;;;;;;;;3.20;96.50;;;;;;5046305;28;19935;-69
2022/04/02 09:50:13;;;;;;;;;;;3.20;96.40;;;;;;5047275;28;19932;-69
2022/04/02 09:52:44;;;;;;;;;;;3.20;96.40;;;;;;5047901;28;19938;-69
2022/04/02 09:55:12;;;;;;;;;;;3.20;96.40;;;;;;5047887;28;19943;-69
2022/04/02 09:57:51;;;;;;;;;;;3.20;96.30;;;;;;5046041;28;20648;-68
2022/04/02 10:00:20;;;;;;;;;;;3.20;96.30;;;;;;5042603;28;19929;-69
2022/04/02 10:03:00;;;;;;;;;;;3.20;96.20;;;;;;5045650;28;19939;-69
2022/04/02 10:05:32;;;;;;;;;;;3.20;96.20;;;;;;5046617;28;20580;-69
2022/04/02 10:08:03;;;;;;;;;;;3.20;96.10;;;;;;5044638;28;19936;-69
2022/04/02 10:10:30;;;;;;;;;;;3.20;96.10;;;;;;5042557;28;19940;-75
2022/04/02 10:12:57;;;;;;;;;;;3.20;96.10;;;;;;5048553;28;19948;-75
2022/04/02 10:15:25;;;;;;;;;;;3.20;96.10;;;;;;5049718;28;19928;-76
2022/04/02 10:17:53;;;;;;;;;;;3.20;96.00;;;;;;5050076;28;19939;-75
2022/04/02 10:20:20;;;;;;;;;;;3.20;96.00;;;;;;5045744;28;19924;-75
2022/04/02 10:22:47;;;;;;;;;;;3.20;96.00;;;;;;5049090;28;19972;-75
2022/04/02 10:25:14;;;;;;;;;;;3.20;96.00;;;;;;5049669;28;19929;-75
2022/04/02 10:27:42;;;;;;;;;;;3.30;96.00;;;;;;5047710;28;19928;-75
2022/04/02 10:30:09;;;;;;;;;;;3.20;96.00;;;;;;5045880;28;19929;-75
2022/04/02 10:32:52;;;;;;;;;;;3.20;95.90;;;;;;5045846;28;19928;-75
2022/04/02 10:35:20;;;;;;;;;;;3.30;95.90;;;;;;5045451;28;19929;-75
2022/04/02 10:37:55;;;;;;;;;;;3.30;95.90;;;;;;5047837;28;19994;-75
2022/04/02 10:40:24;;;;;;;;;;;3.30;95.90;;;;;;5044282;28;19943;-76
2022/04/02 10:42:52;;;;;;;;;;;3.30;95.90;;;;;;5046583;28;19933;-74
2022/04/02 10:45:19;;;;;;;;;;;3.30;95.90;;;;;;5050401;28;20441;-75
2022/04/02 10:47:57;;;;;;;;;;;3.30;95.80;;;;;;5047693;28;19929;-75
2022/04/02 10:50:24;;;;;;;;;;;3.30;95.80;;;;;;5045937;28;20551;-74
2022/04/02 10:52:52;;;;;;;;;;;3.30;95.80;;;;;;5047747;28;19939;-69
2022/04/02 10:55:21;;;;;;;;;;;3.30;95.80;;;;;;5048624;28;19928;-69
2022/04/02 10:57:48;;;;;;;;;;;3.30;95.70;;;;;;5049589;28;19935;-68
2022/04/02 11:00:15;;;;;;;;;;;3.30;95.80;;;;;;5046149;28;20576;-68
2022/04/02 11:02:42;;;;;;;;;;;3.30;95.70;;;;;;5047642;28;19933;-68
2022/04/02 11:05:11;;;;;;;;;;;3.30;95.70;;;;;;5046572;28;20381;-68
2022/04/02 11:07:40;;;;;;;;;;;3.30;95.70;;;;;;5047163;28;19935;-70
2022/04/02 11:10:07;;;;;;;;;;;3.30;95.70;;;;;;5042107;28;19929;-68
2022/04/02 11:12:38;;;;;;;;;;;3.30;95.70;;;;;;5046984;28;19936;-69
2022/04/02 11:15:12;;;;;;;;;;;3.30;95.70;;;;;;5042623;28;19933;-68
2022/04/02 11:17:41;;;;;;;;;;;3.30;95.70;;;;;;5048916;28;19935;-68
2022/04/02 11:20:09;;;;;;;;;;;3.30;95.70;;;;;;5045989;28;19940;-69
2022/04/02 11:22:47;;;;;;;;;;;3.30;95.70;;;;;;5046528;28;19971;-68
2022/04/02 11:25:16;;;;;;;;;;;3.30;95.70;;;;;;5049223;28;19950;-69
2022/04/02 11:27:44;;;;;;;;;;;3.30;95.70;;;;;;5048228;28;20134;-68
2022/04/02 11:30:11;;;;;;;;;;;3.30;95.70;;;;;;5046492;28;20456;-68
2022/04/02 11:32:40;;;;;;;;;;;3.30;95.70;;;;;;5050757;28;19928;-68
2022/04/02 11:35:07;;;;;;;;;;;3.30;95.70;;;;;;5045469;28;19929;-68
2022/04/02 11:37:36;;;;;;;;;;;3.30;95.70;;;;;;5044755;28;19935;-69
2022/04/02 11:40:06;;;;;;;;;;;3.30;95.60;;;;;;5043706;28;19933;-68
2022/04/02 11:42:34;;;;;;;;;;;3.30;95.60;;;;;;5046266;28;19979;-68
2022/04/02 11:45:02;;;;;;;;;;;3.30;95.60;;;;;;5047810;28;19932;-69
2022/04/02 11:47:29;;;;;;;;;;;3.30;95.60;;;;;;5044728;28;19929;-68
2022/04/02 11:50:04;;;;;;;;;;;3.30;95.60;;;;;;5047374;28;20711;-68
2022/04/02 11:52:48;;;;;;;;;;;3.30;95.50;;;;;;5044532;28;19935;-68
2022/04/02 11:55:16;;;;;;;;;;;3.40;95.60;;;;;;5048973;28;19928;-68
2022/04/02 11:57:56;;;;;;;;;;;3.30;95.60;;;;;;5042202;28;20020;-68
2022/04/02 12:00:25;;;;;;;;;;;3.40;95.50;;;;;;5050895;28;19936;-68
2022/04/02 12:02:52;;;;;;;;;;;3.40;95.50;;;;;;5047926;28;19936;-68
2022/04/02 12:05:20;;;;;;;;;;;3.40;95.50;;;;;;5046701;28;19929;-68
2022/04/02 12:07:47;;;;;;;;;;;3.40;95.50;;;;;;5048448;28;20496;-68
2022/04/02 12:10:16;;;;;;;;;;;3.40;95.40;;;;;;5041664;28;20429;-74
2022/04/02 12:12:43;;;;;;;;;;;3.40;95.40;;;;;;5044331;28;20127;-74
2022/04/02 12:15:10;;;;;;;;;;;3.50;95.50;;;;;;5042695;28;19935;-72
2022/04/02 12:17:38;;;;;;;;;;;3.50;95.50;;;;;;5045561;28;19932;-74
2022/04/02 12:20:07;;;;;;;;;;;3.50;95.50;;;;;;5045907;28;19929;-74
2022/04/02 12:22:36;;;;;;;;;;;3.50;95.50;;;;;;5046394;28;19975;-74
2022/04/02 12:25:04;;;;;;;;;;;3.50;95.40;;;;;;5046434;28;19928;-75
2022/04/02 12:27:32;;;;;;;;;;;3.40;95.30;;;;;;5046865;28;19928;-74
2022/04/02 12:30:00;;;;;;;;;;;3.50;95.30;;;;;;5042167;28;19928;-74
2022/04/02 12:32:29;;;;;;;;;;;3.40;95.30;;;;;;5044053;28;20458;-75
2022/04/02 12:34:57;;;;;;;;;;;3.50;95.30;;;;;;5043607;28;19972;-75
2022/04/02 12:37:24;;;;;;;;;;;3.50;95.30;;;;;;5044101;28;19933;-75
2022/04/02 12:39:52;;;;;;;;;;;3.50;95.30;;;;;;5041326;28;19955;-75
2022/04/02 12:42:33;;;;;;;;;;;3.50;95.30;;;;;;5045545;28;19932;-75
2022/04/02 12:45:06;;;;;;;;;;;3.50;95.30;;;;;;5044438;28;19929;-76
2022/04/02 12:47:33;;;;;;;;;;;3.50;95.30;;;;;;5044148;28;20015;-75
2022/04/02 12:50:09;;;;;;;;;;;3.50;95.30;;;;;;5041553;28;19929;-74
2022/04/02 12:52:44;;;;;;;;;;;3.50;95.30;;;;;;5041870;28;20517;-76
2022/04/02 12:55:16;;;;;;;;;;;3.50;95.30;;;;;;5043399;28;19964;-76
2022/04/02 12:57:45;;;;;;;;;;;3.40;95.20;;;;;;5041253;28;19968;-76
2022/04/02 13:00:24;;;;;;;;;;;3.40;95.20;;;;;;5042584;28;20344;-75
2022/04/02 13:02:54;;;;;;;;;;;3.50;95.20;;;;;;5042052;28;19933;-75
2022/04/02 13:05:21;;;;;;;;;;;3.50;95.30;;;;;;5045579;28;20510;-76
2022/04/02 13:07:52;;;;;;;;;;;3.50;95.30;;;;;;5046188;28;19932;-76
2022/04/02 13:10:19;;;;;;;;;;;3.50;95.30;;;;;;5045075;28;19932;-75
2022/04/02 13:12:52;;;;;;;;;;;3.40;95.20;;;;;;5042868;28;19939;-76
2022/04/02 13:15:22;;;;;;;;;;;3.40;95.20;;;;;;5045247;28;19943;-76
2022/04/02 13:20:31;;;;;;;;;;;3.50;95.20;;;;;;5045259;28;19924;-74
2022/04/02 13:22:57;;;;;;;;;;;3.40;95.20;;;;;;5048186;28;20396;-75
2022/04/02 13:25:25;;;;;;;;;;;3.50;95.20;;;;;;5048461;28;20104;-75
2022/04/02 13:28:09;;;;;;;;;;;3.50;95.20;;;;;;5050588;28;19939;-75
2022/04/02 13:30:38;;;;;;;;;;;3.40;95.50;;;;;;5045423;28;20044;-75
2022/04/02 13:33:31;;;;;;;;;;;3.50;95.20;;;;;;5043588;28;20396;-75
2022/04/02 13:36:03;;;;;;;;;;;3.50;95.20;;;;;;5043697;28;20393;-75
2022/04/02 13:38:39;;;;;;;;;;;3.50;95.20;;;;;;5041343;28;19932;-76
2022/04/02 13:41:06;;;;;;;;;;;3.50;95.20;;;;;;5047505;28;19933;-75
2022/04/02 13:43:34;;;;;;;;;;;3.50;95.20;;;;;;5046777;28;19933;-75
2022/04/02 13:46:04;;;;;;;;;;;3.40;95.20;;;;;;5045404;28;20064;-76
2022/04/02 13:48:34;;;;;;;;;;;3.50;95.20;;;;;;5047298;28;20359;-75
2022/04/02 13:51:02;;;;;;;;;;;3.50;95.20;;;;;;5043236;28;20461;-76
2022/04/02 13:53:33;;;;;;;;;;;3.50;95.20;;;;;;5046127;28;20026;-76
2022/04/02 13:56:03;;;;;;;;;;;3.40;95.20;;;;;;5044091;28;19935;-76
2022/04/02 13:58:33;;;;;;;;;;;3.40;95.20;;;;;;5046651;28;19940;-77
2022/04/02 14:01:01;;;;;;;;;;;3.40;95.20;;;;;;5045145;28;19959;-75
2022/04/02 14:03:30;;;;;;;;;;;3.40;95.10;;;;;;5046629;28;19928;-76
2022/04/02 14:05:56;;;;;;;;;;;3.50;95.20;;;;;;5043610;28;19928;-76
2022/04/02 14:08:28;;;;;;;;;;;3.40;95.20;;;;;;5046268;28;20392;-75
2022/04/02 14:11:00;;;;;;;;;;;3.50;95.20;;;;;;5046346;28;19932;-75
2022/04/02 14:13:29;;;;;;;;;;;3.50;95.20;;;;;;5040818;28;19928;-76
2022/04/02 14:15:56;;;;;;;;;;;3.50;95.20;;;;;;5047957;28;19932;-76
2022/04/02 14:18:24;;;;;;;;;;;3.40;95.10;;;;;;5049207;28;19925;-75
2022/04/02 14:20:53;;;;;;;;;;;3.50;95.20;;;;;;5049621;28;20576;-76
2022/04/02 14:23:22;;;;;;;;;;;3.50;95.20;;;;;;5044571;28;20629;-76
2022/04/02 14:26:09;;;;;;;;;;;3.50;95.10;;;;;;5044294;28;20419;-76
2022/04/02 14:28:45;;;;;;;;;;;3.50;95.10;;;;;;5036163;28;19936;-75
2022/04/02 14:31:41;;;;;;;;;;;3.50;95.10;;;;;;5045082;28;19937;-75
2022/04/02 14:34:20;;;;;;;;;;;3.50;95.20;;;;;;5047264;28;19929;-75
2022/04/02 14:37:08;;;;;;;;;;;3.50;95.30;;;;;;5047435;28;19940;-75
2022/04/02 14:39:50;;;;;;;;;;;3.50;95.40;;;;;;5043660;28;19940;-76
2022/04/02 14:42:24;;;;;;;;;;;3.50;95.30;;;;;;5040389;28;20459;-76
2022/04/02 14:45:01;;;;;;;;;;;3.50;95.30;;;;;;5045117;28;19940;-77
2022/04/02 14:47:47;;;;;;;;;;;3.50;95.20;;;;;;5044273;28;19931;-76
2022/04/02 14:50:32;;;;;;;;;;;3.50;95.20;;;;;;5046645;28;19925;-76